Current Weather Conditions from Arkansas, Oklahoma, Missouri & Kansas

As well as selected U.S. cities associated with XNA Flights


KVBT - Bentonville Arkansas, Airport
Updated: Thu, Jun-Thu-2019 3:56am
Clear
Clear
 Wind from calm
Wind: Calm
Temperature: 66°F , 19°C
Dew Point: 64°F , 18°C
Humidity: 94%
Barometer: 29.78 inHg , 1008.5 hPa
Clouds: Clear
Visibility: 10 miles , 16 km
2019/06/20 08:56 KVBT 200856Z AUTO 00000KT 10SM CLR 19/18 A2978 RMK AO2 SLP076 T01890183 53001
KROG - Rogers Arkansas, Airport
Updated: Thu, Jun-Thu-2019 3:58am
Clear
Clear
 Wind from S
Wind: S 3 mph , 6 km/h
Temperature: 66°F , 19°C
Dew Point: 64°F , 18°C
Humidity: 94%
Barometer: 29.77 inHg , 1008.1 hPa
Clouds: Clear
Visibility: 10 miles , 16 km
2019/06/20 08:58 KROG 200858Z AUTO 19003KT 10SM CLR 19/18 A2977 RMK AO2 SLP068 6//// T01890183 53002 PNO $
KXNA - Northwest Arkansas Regional Airport
Updated: Thu, Jun-Thu-2019 2:53am
Clear
Clear
 Wind from SW
Wind: SW 3 mph , 6 km/h
Temperature: 66°F , 19°C
Dew Point: 63°F , 17°C
Humidity: 88%
Barometer: 29.75 inHg , 1007.5 hPa
Clouds: Clear
Visibility: 10 miles , 16 km
2019/06/20 07:53 KXNA 200753Z 23003KT 10SM CLR 19/17 A2975 RMK AO2 SLP060 T01890172 $
 
KSLG - Siloam Spring Arkansas, Airport
Updated: Thu, Jun-Thu-2019 3:56am
Clear
Clear
 
Temperature: 66°F , 19°C
Dew Point: 64°F , 18°C
Humidity: 94%
Barometer: 29.77 inHg , 1008.1 hPa
Clouds: Clear
Visibility: 10 miles , 16 km
2019/06/20 08:56 KSLG 200856Z AUTO 10SM CLR 19/18 A2977 RMK AO2 SLP069 T01890183 53001
KASG - Springdale, Arkansas, Airport
Updated: Wed, Jun-Wed-2019 8:48pm
NOT Current
Clear
Clear
 Wind from WSW
Wind: WSW 5 mph , 7 km/h
Temperature: 77°F , 25°C
Dew Point: 70°F , 21°C
Humidity: 79%
Barometer: 29.76 inHg , 1007.8 hPa
Clouds: Clear
Visibility: 10 miles , 16 km
2019/06/20 01:48 KASG 200148Z 24004KT 10SM CLR 25/21 A2976
KFYV - Fayetteville Arkansas, Airport
Updated: Thu, Jun-Thu-2019 3:53am
Clear
Clear
 Wind from S
Wind: S 5 mph , 7 km/h
Temperature: 64°F , 18°C
Dew Point: 64°F , 18°C
Humidity: 100%
Barometer: 29.77 inHg , 1008.1 hPa
Clouds: Clear
Visibility: 10 miles , 16 km
2019/06/20 08:53 KFYV 200853Z AUTO 19004KT 10SM CLR 18/18 A2977 RMK AO2 SLP066 T01780178 53000
 
KHRO - Harrison, Arkansas
Updated: Thu, Jun-Thu-2019 3:53am
Clear
Clear
 Wind from SW
Wind: SW 3 mph , 6 km/h
Temperature: 64°F , 18°C
Dew Point: 63°F , 17°C
Humidity: 94%
Barometer: 29.76 inHg , 1007.8 hPa
Clouds: Clear
Visibility: 10 miles , 16 km
2019/06/20 08:53 KHRO 200853Z AUTO 23003KT 10SM CLR 18/17 A2976 RMK AO2 SLP062 T01780172 51005
KFLP - Flippin, Arkansas
Updated: Thu, Jun-Thu-2019 3:56am
Clear
Clear
 Wind from calm
Wind: Calm
Temperature: 66°F , 19°C
Dew Point: 64°F , 18°C
Humidity: 94%
Barometer: 29.74 inHg , 1007.1 hPa
Clouds: Clear
Visibility: 10 miles , 16 km
2019/06/20 08:56 KFLP 200856Z AUTO 00000KT 10SM CLR 19/18 A2974 RMK AO2 SLP063 T01890183 51010
KBPK - Mountain Home, Arkansas
Updated: Thu, Jun-Thu-2019 3:53am
Clear
Clear
 Wind from calm
Wind: Calm
Temperature: 64°F , 18°C
Dew Point: 64°F , 18°C
Humidity: 100%
Barometer: 29.73 inHg , 1006.8 hPa
Clouds: Clear
Visibility: 10 miles , 16 km
2019/06/20 08:53 KBPK 200853Z AUTO 00000KT 10SM CLR 18/18 A2973 RMK AO2 SLP057 T01830183 51010
 
KCCA - Clinton, Arkansas
Updated: Thu, Jun-Thu-2019 3:55am
Few Clouds
Few Clouds
 Wind from calm
Wind: Calm
Temperature: 68°F , 20°C
Dew Point: 66°F , 19°C
Humidity: 94%
Barometer: 29.74 inHg , 1007.1 hPa
Clouds: Few Clouds
Visibility: 10 miles , 16 km
Cloud details: Few Clouds 5000 ft
2019/06/20 08:55 KCCA 200855Z AUTO 00000KT 10SM FEW050 20/19 A2974 RMK AO2
KRUE - Russellville, Arkansas
Updated: Thu, Jun-Thu-2019 3:53am
Clear
Clear
 Wind from calm
Wind: Calm
Temperature: 72°F , 22°C
Dew Point: 66°F , 19°C
Humidity: 83%
Barometer: 29.73 inHg , 1006.8 hPa
Clouds: Clear
Visibility: 10 miles , 16 km
2019/06/20 08:53 KRUE 200853Z AUTO 00000KT 10SM CLR 22/19 A2973 RMK AO2 SLP057 T02170189 53005 TSNO
KBVX - Batesville, Arkansa
Updated: Thu, Jun-Thu-2019 3:56am
Light rain, Overcast
Light rain, Overcast
 Wind from SW
Wind: SW 5 mph , 7 km/h
Temperature: 72°F , 22°C
Dew Point: 66°F , 19°C
Humidity: 83%
Barometer: 29.73 inHg , 1006.8 hPa
Summary: Light rain
Clouds: Overcast
Visibility: 10 miles , 16 km
Cloud details: Partly cloudy 4400 ft
Overcast 6000 ft
2019/06/20 08:56 KBVX 200856Z AUTO 22004KT 10SM -RA SCT044 OVC060 22/19 A2973 RMK AO2 LTG DSNT SE RAB52 SLP062 6//// T02220194 50006 PNO $
 
KBYH - Blytheville, Arkansas
Updated: Wed, Jun-Wed-2019 3:59pm
NOT Current
Partly cloudy
Partly cloudy
 Wind from WSW
Wind: WSW 18 mph , 30 km/h, Gust: 35 mph , 56 km/h
Temperature: 91°F , 33°C
Heat Index: 94°F , 34°C
Dew Point: 66°F , 19°C
Humidity: 44%
Barometer: 29.66 inHg , 1004.4 hPa
Clouds: Partly cloudy
Visibility: 10 miles , 16 km
Cloud details: Partly cloudy 6000 ft
2019/06/19 20:59 KBYH 192059Z 24016G30KT 10SM SCT060 33/19 A2966
KM19 - Newport, Arkansas
Updated: Thu, Jun-Thu-2019 3:56am
Overcast
Overcast
 Wind from SW
Wind: SW 13 mph , 20 km/h
Temperature: 72°F , 22°C
Dew Point: 66°F , 19°C
Humidity: 83%
Barometer: 29.73 inHg , 1006.8 hPa
Clouds: Overcast
Visibility: 10 miles , 16 km
Cloud details: Overcast 5000 ft
2019/06/20 08:56 KM19 200856Z AUTO 23011KT 10SM OVC050 22/19 A2973 RMK AO2 LTG DSNT E-S TSE0759B01E03B05E24 SLP067 P0010 60010 T02170189 51007
KSRC - Searcy, Arkansas
Updated: Thu, Jun-Thu-2019 3:56am
Overcast
Overcast
 Wind from S
Wind: S 8 mph , 13 km/h
Temperature: 72°F , 22°C
Dew Point: 68°F , 20°C
Humidity: 88%
Barometer: 29.74 inHg , 1007.1 hPa
Clouds: Overcast
Visibility: 10 miles , 16 km
Cloud details: Overcast 6000 ft
2019/06/20 08:56 KSRC 200856Z AUTO 19007KT 10SM OVC060 22/20 A2974 RMK AO2 LTG DSNT NE AND E TSB37E52 SLP070 60000 T02220200 50005
 
KARG - Walnut Ridge, Arkansas
Updated: Thu, Jun-Thu-2019 3:56am
Mostly cloudy
Mostly cloudy
 Wind from SW
Wind: SW 9 mph , 15 km/h
Temperature: 73°F , 23°C
Dew Point: 70°F , 21°C
Humidity: 89%
Barometer: 29.71 inHg , 1006.1 hPa
Clouds: Mostly cloudy
Visibility: 10 miles , 16 km
Cloud details: Mostly cloudy 7000 ft
Mostly cloudy 8500 ft
2019/06/20 08:56 KARG 200856Z AUTO 22008KT 10SM BKN070 BKN085 23/21 A2971 RMK AO2 SLP058 T02280211 52006
KJBR - Jonesboro, Arkansas
Updated: Thu, Jun-Thu-2019 3:53am
Overcast
Overcast
 Wind from WSW
Wind: WSW 13 mph , 20 km/h
Temperature: 73°F , 23°C
Dew Point: 66°F , 19°C
Humidity: 78%
Barometer: 29.72 inHg , 1006.4 hPa
Clouds: Overcast
Visibility: 10 miles , 16 km
Cloud details: Overcast 4300 ft
2019/06/20 08:53 KJBR 200853Z AUTO 24011KT 10SM OVC043 23/19 A2972 RMK AO2 LTG DSNT SE AND SW SLP059 60000 T02280194 51011
K4M9 - Corning, Arkansas
Updated: Thu, Jun-Thu-2019 3:55am

 Wind from WSW
Wind: WSW 6 mph , 9 km/h
Temperature: 75°F , 24°C
Dew Point: 75°F , 24°C
Humidity: 100%
Barometer: 29.69 inHg , 1005.4 hPa
2019/06/20 08:55 K4M9 200855Z AUTO 25005KT 24/24 A2969 RMK AO2 PWINO
 
KLRF - Little Rock Afb, Arkansas
Updated: Thu, Jun-Thu-2019 3:56am
Mostly cloudy
Mostly cloudy
 Wind from SW
Wind: SW 7 mph , 11 km/h
Temperature: 72°F , 22°C
Dew Point: 70°F , 21°C
Humidity: 94%
Barometer: 29.73 inHg , 1006.8 hPa
Clouds: Mostly cloudy
Visibility: 10 miles , 16 km
Cloud details: Mostly cloudy 5500 ft
Mostly cloudy 7000 ft
2019/06/20 08:56 KLRF 200856Z 23006KT 10SM BKN055 BKN070 22/21 A2973 RMK AO2A RAB00E22DZB42E43RAB43E54 TSB02E16 SLP067 P0013 60013 T02160209 53001
KLIT - Little Rock, Arkansas
Updated: Thu, Jun-Thu-2019 3:53am
Overcast
Overcast
 Wind from SW
Wind: SW 7 mph , 11 km/h
Temperature: 70°F , 21°C
Dew Point: 66°F , 19°C
Humidity: 88%
Barometer: 29.74 inHg , 1007.1 hPa
Clouds: Overcast
Visibility: 10 miles , 16 km
Cloud details: Mostly cloudy 5500 ft
Mostly cloudy 10000 ft
Overcast 20000 ft
2019/06/20 08:53 KLIT 200853Z 23006KT 10SM BKN055 BKN100 OVC200 21/19 A2974 RMK AO2 SLP069 T02060194 56001 $
KSGT - Stuttgart, Arkansas
Updated: Thu, Jun-Thu-2019 3:56am
Clear
Clear
 Wind from WSW
Wind: WSW 9 mph , 15 km/h
Temperature: 72°F , 22°C
Dew Point: 66°F , 19°C
Humidity: 83%
Barometer: 29.74 inHg , 1007.1 hPa
Clouds: Clear
Visibility: 10 miles , 16 km
2019/06/20 08:56 KSGT 200856Z AUTO 24008KT 10SM CLR 22/19 A2974 RMK AO2 SLP070 T02220194 51005
 
KAWM - West Memphis, Arkansas
Updated: Thu, Jun-Thu-2019 3:53am
Overcast
Overcast
 Wind from S
Wind: S 8 mph , 13 km/h
Temperature: 72°F , 22°C
Dew Point: 70°F , 21°C
Humidity: 94%
Barometer: 29.72 inHg , 1006.4 hPa
Clouds: Overcast
Visibility: 10 miles , 16 km
Cloud details: Few Clouds 6500 ft
Overcast 9000 ft
2019/06/20 08:53 KAWM 200853Z AUTO 18007KT 10SM FEW065 OVC090 22/21 A2972 RMK AO2 LTG DSNT N SLP057 60002 T02170211 51001
KFSM - Fort Smith, Arkansas
Updated: Thu, Jun-Thu-2019 3:53am
Clear
Clear
 Wind from SW
Wind: SW 5 mph , 7 km/h
Temperature: 72°F , 22°C
Dew Point: 66°F , 19°C
Humidity: 83%
Barometer: 29.73 inHg , 1006.8 hPa
Clouds: Clear
Visibility: 10 miles , 16 km
2019/06/20 08:53 KFSM 200853Z AUTO 23004KT 10SM CLR 22/19 A2973 RMK AO2 SLP059 T02170194 51002
KMWT - Mount Ida, Arkansas
Updated: Thu, Jun-Thu-2019 3:53am
Mist, Clear
Mist, Clear
 Wind from calm
Wind: Calm
Temperature: 66°F , 19°C
Dew Point: 66°F , 19°C
Humidity: 100%
Barometer: 29.74 inHg , 1007.1 hPa
Summary: Mist
Clouds: Clear
Visibility: 6 miles , 10 km
2019/06/20 08:53 KMWT 200853Z AUTO 00000KT 6SM BR CLR 19/19 A2974 RMK AO2 SLP059 T01940189 50003 $
 
KMEZ - Mena, Arkansas
Updated: Thu, Jun-Thu-2019 3:55am
Clear
Clear
 Wind from W
Wind: W 3 mph , 6 km/h
Barometer: 29.79 inHg , 1008.8 hPa
Clouds: Clear
Visibility: 7 miles , 11 km
2019/06/20 08:55 KMEZ 200855Z AUTO 26003KT 7SM CLR A2979 RMK AO2
KHOT - Hot Springs, Arkansas
Updated: Thu, Jun-Thu-2019 3:53am
Clear
Clear
 Wind from W
Wind: W 5 mph , 7 km/h
Temperature: 72°F , 22°C
Dew Point: 70°F , 21°C
Humidity: 94%
Barometer: 29.76 inHg , 1007.8 hPa
Clouds: Clear
Visibility: 10 miles , 16 km
2019/06/20 08:53 KHOT 200853Z AUTO 26004KT 10SM CLR 22/21 A2976 RMK AO2 SLP070 60000 T02170206 58003
KADF - Arkadelphia, Arkansas
Updated: Thu, Jun-Thu-2019 3:56am
Mist, Clear
Mist, Clear
 Wind from calm
Wind: Calm
Temperature: 70°F , 21°C
Dew Point: 70°F , 21°C
Humidity: 100%
Barometer: 29.76 inHg , 1007.8 hPa
Summary: Mist
Clouds: Clear
Visibility: 6 miles , 10 km
2019/06/20 08:56 KADF 200856Z AUTO 00000KT 6SM BR CLR 21/21 A2976 RMK AO2 SLP077 60004 T02060206 50005
 
KSGT - Stuttgart, Arkansas
Updated: Thu, Jun-Thu-2019 3:56am
Clear
Clear
 Wind from WSW
Wind: WSW 9 mph , 15 km/h
Temperature: 72°F , 22°C
Dew Point: 66°F , 19°C
Humidity: 83%
Barometer: 29.74 inHg , 1007.1 hPa
Clouds: Clear
Visibility: 10 miles , 16 km
2019/06/20 08:56 KSGT 200856Z AUTO 24008KT 10SM CLR 22/19 A2974 RMK AO2 SLP070 T02220194 51005
KPBF - Pine Bluff, Arkansas
Updated: Thu, Jun-Thu-2019 3:53am
Few Clouds
Few Clouds
 Wind from W
Wind: W 15 mph , 24 km/h, Gust: 22 mph , 35 km/h
Temperature: 72°F , 22°C
Dew Point: 64°F , 18°C
Humidity: 78%
Barometer: 29.76 inHg , 1007.8 hPa
Clouds: Few Clouds
Visibility: 10 miles , 16 km
Cloud details: Few Clouds 3000 ft
Few Clouds 3600 ft
2019/06/20 08:53 KPBF 200853Z AUTO 26013G19KT 10SM FEW030 FEW036 22/18 A2976 RMK AO2 PK WND 31030/0811 WSHFT 0742 SLP075 60004 T02220183 53003
KSRC - Searcy, Arkansas
Updated: Thu, Jun-Thu-2019 3:56am
Overcast
Overcast
 Wind from S
Wind: S 8 mph , 13 km/h
Temperature: 72°F , 22°C
Dew Point: 68°F , 20°C
Humidity: 88%
Barometer: 29.74 inHg , 1007.1 hPa
Clouds: Overcast
Visibility: 10 miles , 16 km
Cloud details: Overcast 6000 ft
2019/06/20 08:56 KSRC 200856Z AUTO 19007KT 10SM OVC060 22/20 A2974 RMK AO2 LTG DSNT NE AND E TSB37E52 SLP070 60000 T02220200 50005
 
KRUE - Russellville, Arkansas
Updated: Thu, Jun-Thu-2019 3:53am
Clear
Clear
 Wind from calm
Wind: Calm
Temperature: 72°F , 22°C
Dew Point: 66°F , 19°C
Humidity: 83%
Barometer: 29.73 inHg , 1006.8 hPa
Clouds: Clear
Visibility: 10 miles , 16 km
2019/06/20 08:53 KRUE 200853Z AUTO 00000KT 10SM CLR 22/19 A2973 RMK AO2 SLP057 T02170189 53005 TSNO
KCCA - Clinton, Arkansas
Updated: Thu, Jun-Thu-2019 3:55am
Few Clouds
Few Clouds
 Wind from calm
Wind: Calm
Temperature: 68°F , 20°C
Dew Point: 66°F , 19°C
Humidity: 94%
Barometer: 29.74 inHg , 1007.1 hPa
Clouds: Few Clouds
Visibility: 10 miles , 16 km
Cloud details: Few Clouds 5000 ft
2019/06/20 08:55 KCCA 200855Z AUTO 00000KT 10SM FEW050 20/19 A2974 RMK AO2
KLLQ - Monticello, Arkansas
Updated: Thu, Jun-Thu-2019 3:53am
Light rain, Few clouds
Light rain, Few clouds
 Wind from SSE
Wind: SSE 17 mph , 28 km/h, Gust: 26 mph , 43 km/h
Temperature: 70°F , 21°C
Dew Point: 64°F , 18°C
Humidity: 83%
Barometer: 29.67 inHg , 1004.7 hPa
Summary: Light rain
Clouds: Few Clouds
Visibility: 10 miles , 16 km
Cloud details: Few Clouds 11000 ft
2019/06/20 08:53 KLLQ 200853Z AUTO 15015G23KT 10SM -RA FEW110 21/18 A2967 RMK AO2 PRESFR SLP043 6//// T02060183 58037 PNO $
 
KCDH - Camden, Arkansas
Updated: Thu, Jun-Thu-2019 3:55am
Clear
Clear
 Wind from calm
Wind: Calm
Temperature: 70°F , 21°C
Dew Point: 64°F , 18°C
Humidity: 83%
Barometer: 29.77 inHg , 1008.1 hPa
Clouds: Clear
Visibility: 10 miles , 16 km
2019/06/20 08:55 KCDH 200855Z AUTO 00000KT 10SM CLR 21/18 A2977 RMK AO2
KM19 - Newport, Arkansas
Updated: Thu, Jun-Thu-2019 3:56am
Overcast
Overcast
 Wind from SW
Wind: SW 13 mph , 20 km/h
Temperature: 72°F , 22°C
Dew Point: 66°F , 19°C
Humidity: 83%
Barometer: 29.73 inHg , 1006.8 hPa
Clouds: Overcast
Visibility: 10 miles , 16 km
Cloud details: Overcast 5000 ft
2019/06/20 08:56 KM19 200856Z AUTO 23011KT 10SM OVC050 22/19 A2973 RMK AO2 LTG DSNT E-S TSE0759B01E03B05E24 SLP067 P0010 60010 T02170189 51007
KDEQ - De Queen, Arkansas
Updated: Thu, Jun-Thu-2019 3:53am
Clear
Clear
 Wind from calm
Wind: Calm
Temperature: 68°F , 20°C
Dew Point: 68°F , 20°C
Humidity: 100%
Barometer: 29.75 inHg , 1007.5 hPa
Clouds: Clear
Visibility: 10 miles , 16 km
2019/06/20 08:53 KDEQ 200853Z AUTO 00000KT 10SM CLR 20/20 A2975 RMK AO2 SLP068 T02000200 51008
 
KTXK - Texarkana, Arkansas
Updated: Thu, Jun-Thu-2019 3:53am
Clear
Clear
 Wind from calm
Wind: Calm
Temperature: 66°F , 19°C
Dew Point: 66°F , 19°C
Humidity: 100%
Barometer: 29.77 inHg , 1008.1 hPa
Clouds: Clear
Visibility: 10 miles , 16 km
2019/06/20 08:53 KTXK 200853Z AUTO 00000KT 10SM CLR 19/19 A2977 RMK AO2 SLP077 60000 T01940189 50003 $
KELD - El Dorado, Arkansas
Updated: Thu, Jun-Thu-2019 3:53am
Clear
Clear
 Wind from calm
Wind: Calm
Temperature: 66°F , 19°C
Dew Point: 64°F , 18°C
Humidity: 94%
Barometer: 29.77 inHg , 1008.1 hPa
Clouds: Clear
Visibility: 10 miles , 16 km
2019/06/20 08:53 KELD 200853Z AUTO 00000KT 10SM CLR 19/18 A2977 RMK AO2 PK WND 13028/0756 RAE08 SLP078 P0000 60025 T01940183 55026
KCSM - Clinton, Oklahoma
Updated: Thu, Jun-Thu-2019 3:53am
Clear
Clear
 Wind from S
Wind: S 8 mph , 13 km/h
Temperature: 66°F , 19°C
Dew Point: 64°F , 18°C
Humidity: 94%
Barometer: 29.78 inHg , 1008.5 hPa
Clouds: Clear
Visibility: 10 miles , 16 km
2019/06/20 08:53 KCSM 200853Z AUTO 18007KT 10SM CLR 19/18 A2978 RMK AO2 SLP062 T01940178 53007
 
KHBR - Hobart, Oklahoma
Updated: Thu, Jun-Thu-2019 3:53am
Clear
Clear
 Wind from S
Wind: S 9 mph , 15 km/h
Temperature: 70°F , 21°C
Dew Point: 64°F , 18°C
Humidity: 83%
Barometer: 29.78 inHg , 1008.5 hPa
Clouds: Clear
Visibility: 10 miles , 16 km
2019/06/20 08:53 KHBR 200853Z AUTO 18008KT 10SM CLR 21/18 A2978 RMK AO2 SLP064 T02060183 53009
KLTS - Altus Afb, Oklahoma
Updated: Thu, Jun-Thu-2019 3:56am
Clear
Clear
 Wind from E
Wind: E 6 mph , 9 km/h
Temperature: 68°F , 20°C
Dew Point: 68°F , 20°C
Humidity: 100%
Barometer: 29.77 inHg , 1008.1 hPa
Clouds: Clear
Visibility: 10 miles , 16 km
2019/06/20 08:56 KLTS 200856Z AUTO 10005KT 10SM CLR 20/20 A2977 RMK AO2 SLP066 T02010201 52010 $
KFSI - Fort Sill, Oklahoma
Updated: Thu, Jun-Thu-2019 3:56am
Clear
Clear
 Wind from S
Wind: S 6 mph , 9 km/h
Temperature: 68°F , 20°C
Dew Point: 68°F , 20°C
Humidity: 100%
Barometer: 29.77 inHg , 1008.1 hPa
Clouds: Clear
Visibility: 10 miles , 16 km
2019/06/20 08:56 KFSI 200856Z AUTO 19005KT 10SM CLR 20/20 A2977 RMK AO2 SLP072 T01970197 52017
 
KGAG - Gage, Oklahoma
Updated: Thu, Jun-Thu-2019 3:53am
Clear
Clear
 Wind from calm
Wind: Calm
Temperature: 64°F , 18°C
Dew Point: 61°F , 16°C
Humidity: 88%
Barometer: 29.77 inHg , 1008.1 hPa
Clouds: Clear
Visibility: 10 miles , 16 km
2019/06/20 08:53 KGAG 200853Z AUTO 00000KT 10SM CLR 18/16 A2977 RMK AO2 SLP053 T01780161 53000
KWWR - Woodward, Oklahoma
Updated: Thu, Jun-Thu-2019 3:55am
Clear
Clear
 Wind from calm
Wind: Calm
Temperature: 63°F , 17°C
Dew Point: 59°F , 15°C
Humidity: 88%
Barometer: 29.80 inHg , 1009.1 hPa
Clouds: Clear
Visibility: 10 miles , 16 km
2019/06/20 08:55 KWWR 200855Z AUTO 00000KT 10SM CLR 17/15 A2980 RMK AO2
KLAW - Lawton, Oklahoma
Updated: Thu, Jun-Thu-2019 3:53am
Clear
Clear
 Wind from S
Wind: S 5 mph , 7 km/h
Temperature: 70°F , 21°C
Dew Point: 66°F , 19°C
Humidity: 88%
Barometer: 29.78 inHg , 1008.5 hPa
Clouds: Clear
Visibility: 10 miles , 16 km
2019/06/20 08:53 KLAW 200853Z AUTO 17004KT 10SM CLR 21/19 A2978 RMK AO2 SLP069 T02110194 52018 $
 
KOKC - Oklahoma City, Oklahoma
Updated: Thu, Jun-Thu-2019 3:52am
Few Clouds
Few Clouds
 Wind from S
Wind: S 6 mph , 9 km/h
Temperature: 66°F , 19°C
Dew Point: 66°F , 19°C
Humidity: 100%
Barometer: 29.74 inHg , 1007.1 hPa
Clouds: Few Clouds
Visibility: 10 miles , 16 km
Cloud details: Few Clouds 25000 ft
2019/06/20 08:52 KOKC 200852Z 17005KT 10SM FEW250 19/19 A2974 RMK AO2 SLP057 T01940194 51002 $
KEND - Enid/Vance Afb, Oklahoma
Updated: Thu, Jun-Thu-2019 2:56am
Clear
Clear
 Wind from ESE
Wind: ESE 7 mph , 11 km/h
Temperature: 68°F , 20°C
Dew Point: 68°F , 20°C
Humidity: 100%
Barometer: 29.74 inHg , 1007.1 hPa
Clouds: Clear
Visibility: 10 miles , 16 km
2019/06/20 07:56 KEND 200756Z AUTO 12006KT 10SM CLR 20/20 A2974 RMK AO2 SLP060 T02000200 $
KFDR - Frederick/Altus, Oklahoma
Updated: Thu, Jun-Thu-2019 3:53am
Clear
Clear
 Wind from E
Wind: E 6 mph , 9 km/h
Temperature: 72°F , 22°C
Dew Point: 70°F , 21°C
Humidity: 94%
Barometer: 29.74 inHg , 1007.1 hPa
Clouds: Clear
Visibility: 10 miles , 16 km
2019/06/20 08:53 KFDR 200853Z AUTO 10005KT 10SM CLR 22/21 A2974 RMK AO2 SLP050 T02220206 53010
 
KOUN - Norman, Oklahoma
Updated: Thu, Jun-Thu-2019 3:55am
Clear
Clear
 Wind from SE
Wind: SE 6 mph , 9 km/h
Temperature: 70°F , 21°C
Dew Point: 66°F , 19°C
Humidity: 88%
Barometer: 29.74 inHg , 1007.1 hPa
Clouds: Clear
Visibility: 10 miles , 16 km
2019/06/20 08:55 KOUN 200855Z AUTO 14005KT 10SM CLR 21/19 A2974 RMK AO2 T02110193
KTIK - Tinker Afb, Oklahoma
Updated: Thu, Jun-Thu-2019 3:56am
Clear
Clear
 Wind from SE
Wind: SE 8 mph , 13 km/h
Temperature: 68°F , 20°C
Dew Point: 68°F , 20°C
Humidity: 100%
Barometer: 29.75 inHg , 1007.5 hPa
Clouds: Clear
Visibility: 10 miles , 16 km
2019/06/20 08:56 KTIK 200856Z AUTO 14007KT 10SM CLR 20/20 A2975 RMK AO2 SLP068 T02000200 51005
KGOK - Guthrie, Oklahoma
Updated: Thu, Jun-Thu-2019 3:53am
Clear
Clear
 Wind from SE
Wind: SE 6 mph , 9 km/h
Temperature: 70°F , 21°C
Dew Point: 66°F , 19°C
Humidity: 88%
Barometer: 29.74 inHg , 1007.1 hPa
Clouds: Clear
Visibility: 10 miles , 16 km
2019/06/20 08:53 KGOK 200853Z AUTO 13005KT 10SM CLR 21/19 A2974 RMK AO2 SLP060 T02110189 50005
 
KSNL - Shawnee, Oklahoma
Updated: Thu, Jun-Thu-2019 3:55am
Clear
Clear
 Wind from S
Wind: S 8 mph , 13 km/h
Temperature: 70°F , 21°C
Dew Point: 66°F , 19°C
Humidity: 88%
Barometer: 29.75 inHg , 1007.5 hPa
Clouds: Clear
Visibility: 10 miles , 16 km
2019/06/20 08:55 KSNL 200855Z AUTO 18007KT 10SM CLR 21/19 A2975 RMK AO2 T02050192
KCQB - Chandler, Oklahoma
Updated: Thu, Jun-Thu-2019 3:55am
Clear
Clear
 Wind from SE
Wind: SE 5 mph , 7 km/h
Temperature: 70°F , 21°C
Dew Point: 68°F , 20°C
Humidity: 94%
Barometer: 29.75 inHg , 1007.5 hPa
Clouds: Clear
Visibility: 10 miles , 16 km
2019/06/20 08:55 KCQB 200855Z AUTO 14004KT 10SM CLR 21/20 A2975 RMK AO2 T02070201
KPVJ - Pauls Valley, Oklahoma
Updated: Wed, May-Wed-2019 11:30am
NOT Current
Heavy thunderstorm, Rain, Overcast
Heavy thunderstorm, Rain, Overcast
 Wind from S
Wind: S 28 mph , 44 km/h, Gust: 49 mph , 80 km/h
Temperature: 70°F , 21°C
Dew Point: 68°F , 20°C
Humidity: 94%
Barometer: 29.81 inHg , 1009.5 hPa
Summary: Heavy thunderstorm, Rain
Clouds: Overcast
Visibility: 1 1/4 miles , 2 km
Cloud details: Partly cloudy 1200 ft
Mostly cloudy 2000 ft
Overcast 2600 ft
2019/05/29 16:30 KPVJ 291630Z AUTO 17024G43KT 1 1/4SM +TSRA SCT012 BKN020 OVC026 21/20 A2981 RMK AO2 LTG DSNT ALQS P0022 T02050198
 
KEND - Enid/Vance Afb, Oklahoma
Updated: Thu, Jun-Thu-2019 2:56am
Clear
Clear
 Wind from ESE
Wind: ESE 7 mph , 11 km/h
Temperature: 68°F , 20°C
Dew Point: 68°F , 20°C
Humidity: 100%
Barometer: 29.74 inHg , 1007.1 hPa
Clouds: Clear
Visibility: 10 miles , 16 km
2019/06/20 07:56 KEND 200756Z AUTO 12006KT 10SM CLR 20/20 A2974 RMK AO2 SLP060 T02000200 $
KSWO - Stillwater, Oklahoma
Updated: Thu, Jun-Thu-2019 3:53am
Clear
Clear
 Wind from SE
Wind: SE 3 mph , 6 km/h
Temperature: 72°F , 22°C
Dew Point: 66°F , 19°C
Humidity: 83%
Barometer: 29.74 inHg , 1007.1 hPa
Clouds: Clear
Visibility: 10 miles , 16 km
2019/06/20 08:53 KSWO 200853Z AUTO 13003KT 10SM CLR 22/19 A2974 RMK AO2 SLP058 T02170194 53004
KFSI - Fort Sill, Oklahoma
Updated: Thu, Jun-Thu-2019 3:56am
Clear
Clear
 Wind from S
Wind: S 6 mph , 9 km/h
Temperature: 68°F , 20°C
Dew Point: 68°F , 20°C
Humidity: 100%
Barometer: 29.77 inHg , 1008.1 hPa
Clouds: Clear
Visibility: 10 miles , 16 km
2019/06/20 08:56 KFSI 200856Z AUTO 19005KT 10SM CLR 20/20 A2977 RMK AO2 SLP072 T01970197 52017
 
KDUC - Duncan, Oklahoma
Updated: Thu, Jun-Thu-2019 3:55am
Clear
Clear
 Wind from SSE
Wind: SSE 7 mph , 11 km/h
Temperature: 70°F , 21°C
Dew Point: 66°F , 19°C
Humidity: 88%
Barometer: 29.79 inHg , 1008.8 hPa
Clouds: Clear
Visibility: 10 miles , 16 km
2019/06/20 08:55 KDUC 200855Z AUTO 15006KT 10SM CLR 21/19 A2979 RMK AO2 T02090194
KOKM - Okmulgee, Oklahoma
Updated: Thu, Jun-Thu-2019 3:55am
Mist, Clear
Mist, Clear
 Wind from calm
Wind: Calm
Temperature: 68°F , 20°C
Dew Point: 68°F , 20°C
Humidity: 100%
Barometer: 29.73 inHg , 1006.8 hPa
Summary: Mist
Clouds: Clear
Visibility: 4 miles , 6 km
2019/06/20 08:55 KOKM 200855Z AUTO 00000KT 4SM BR CLR 20/20 A2973 RMK AO2 T01950195
KMLC - Mcalester, Oklahoma
Updated: Thu, Jun-Thu-2019 3:53am
Clear
Clear
 Wind from calm
Wind: Calm
Temperature: 66°F , 19°C
Dew Point: 64°F , 18°C
Humidity: 94%
Barometer: 29.75 inHg , 1007.5 hPa
Clouds: Clear
Visibility: 10 miles , 16 km
2019/06/20 08:53 KMLC 200853Z AUTO 00000KT 10SM CLR 19/18 A2975 RMK AO2 SLP066 T01940183 50003
 
KMKO - Muskogee, Oklahoma
Updated: Thu, Jun-Thu-2019 3:53am
Clear
Clear
 Wind from SSW
Wind: SSW 3 mph , 6 km/h
Temperature: 70°F , 21°C
Dew Point: 70°F , 21°C
Humidity: 100%
Barometer: 29.74 inHg , 1007.1 hPa
Clouds: Clear
Visibility: 10 miles , 16 km
2019/06/20 08:53 KMKO 200853Z AUTO 21003KT 10SM CLR 21/21 A2974 RMK AO2 SLPNO T02060206 56004 $
KRVS - Tulsa, Oklahoma
Updated: Thu, Jun-Thu-2019 3:53am
Clear
Clear
 Wind from calm
Wind: Calm
Temperature: 70°F , 21°C
Dew Point: 66°F , 19°C
Humidity: 88%
Barometer: 29.73 inHg , 1006.8 hPa
Clouds: Clear
Visibility: 9 miles , 14 km
2019/06/20 08:53 KRVS 200853Z AUTO 00000KT 9SM CLR 21/19 A2973 RMK AO2 SLP070 T02060194 50001
KGZL - Stigler, Oklahoma
Updated: Thu, Jun-Thu-2019 3:55am
Clear
Clear
 Wind from S
Wind: S 3 mph , 6 km/h
Temperature: 68°F , 20°C
Dew Point: 68°F , 20°C
Humidity: 100%
Barometer: 29.74 inHg , 1007.1 hPa
Clouds: Clear
Visibility: 10 miles , 16 km
2019/06/20 08:55 KGZL 200855Z AUTO 19003KT 10SM CLR 20/20 A2974 RMK AO2
 
KADH - Ada, Oklahoma
Updated: Thu, Jun-Thu-2019 3:55am

 Wind from S
Wind: S 5 mph , 7 km/h
Temperature: 68°F , 20°C
Dew Point: 68°F , 20°C
Humidity: 100%
Barometer: 29.76 inHg , 1007.8 hPa
Visibility: 10 miles , 16 km
2019/06/20 08:55 KADH 200855Z AUTO 17004KT 10SM 20/20 A2976 RMK AO2
KAQR - Atoka, Oklahoma
Updated: Thu, Jun-Thu-2019 3:55am
Clear
Clear
 Wind from calm
Wind: Calm
Temperature: 64°F , 18°C
Dew Point: 64°F , 18°C
Humidity: 100%
Barometer: 29.77 inHg , 1008.1 hPa
Clouds: Clear
Visibility: 10 miles , 16 km
2019/06/20 08:55 KAQR 200855Z AUTO 00000KT 10SM CLR 18/18 A2977 RMK AO2
KJSV - Sallisaw, Oklahoma
Updated: Fri, Mar-Fri-2019 8:35pm
NOT Current
Mist, Overcast
Mist, Overcast
 Wind from calm
Wind: Calm
Temperature: 39°F , 4°C
Dew Point: 36°F , 2°C
Humidity: 87%
Barometer: 30.15 inHg , 1021 hPa
Summary: Mist
Clouds: Overcast
Visibility: 5 miles , 8 km
Cloud details: Mostly cloudy 1100 ft
Overcast 2600 ft
2019/03/02 02:35 KJSV 020235Z AUTO 00000KT 5SM BR BKN011 OVC026 04/02 A3015 RMK AO2
 
KTQH - Tahlequah, Oklahoma
Updated: Thu, Jun-Thu-2019 3:55am
Clear
Clear
 Wind from calm
Wind: Calm
Temperature: 64°F , 18°C
Dew Point: 63°F , 17°C
Humidity: 94%
Barometer: 29.75 inHg , 1007.5 hPa
Clouds: Clear
Visibility: 10 miles , 16 km
2019/06/20 08:55 KTQH 200855Z AUTO 00000KT 10SM CLR 18/17 A2975 RMK AO2
KGCM - Claremore, Oklahoma
Updated: Thu, Jun-Thu-2019 3:55am
Clear
Clear
 Wind from calm
Wind: Calm
Temperature: 64°F , 18°C
Dew Point: 64°F , 18°C
Humidity: 100%
Barometer: 29.75 inHg , 1007.5 hPa
Clouds: Clear
Visibility: 7 miles , 11 km
2019/06/20 08:55 KGCM 200855Z AUTO 00000KT 7SM CLR 18/18 A2975 RMK AO2
KRKR - Poteau, Oklahoma
Updated: Thu, Jun-Thu-2019 3:55am
Clear
Clear
 Wind from SSW
Wind: SSW 6 mph , 9 km/h
Temperature: 64°F , 18°C
Dew Point: 64°F , 18°C
Humidity: 100%
Barometer: 29.74 inHg , 1007.1 hPa
Clouds: Clear
Visibility: 10 miles , 16 km
2019/06/20 08:55 KRKR 200855Z AUTO 21005KT 10SM CLR 18/18 A2974 RMK AO2
 
KGMJ - Grove, Oklahoma
Updated: Thu, Jun-Thu-2019 3:55am
Mist, Overcast
Mist, Overcast
 Wind from calm
Wind: Calm
Temperature: 64°F , 18°C
Dew Point: 64°F , 18°C
Humidity: 100%
Barometer: 29.76 inHg , 1007.8 hPa
Summary: Mist
Clouds: Overcast
Visibility: 1 3/4 miles , 2.8 km
Cloud details: Overcast 700 ft
2019/06/20 08:55 KGMJ 200855Z AUTO 00000KT 1 3/4SM BR VV007 18/18 A2976 RMK AO2
K4O4 - Idabel, Oklahoma
Updated: Thu, Jun-Thu-2019 3:55am
Partly cloudy
Partly cloudy
 Wind from calm
Wind: Calm
Temperature: 64°F , 18°C
Dew Point: 64°F , 18°C
Humidity: 100%
Barometer: 29.75 inHg , 1007.5 hPa
Clouds: Partly cloudy
Visibility: 7 miles , 11 km
Cloud details: Partly cloudy 100 ft
Partly cloudy 900 ft
2019/06/20 08:55 K4O4 200855Z AUTO 00000KT 7SM SCT001 SCT009 18/18 A2975 RMK AO2
KHHW - Hugo, Oklahoma
Updated: Wed, Jun-Wed-2019 9:18am
NOT Current
Clear
Clear
 Wind from WSW
Wind: WSW 8 mph , 13 km/h
Temperature: 70°F , 21°C
Dew Point: 61°F , 16°C
Humidity: 73%
Barometer: 30.00 inHg , 1015.9 hPa
Clouds: Clear
Visibility: 10 miles , 16 km
2019/06/12 14:18 KHHW 121418Z 24007KT 10SM CLR 21/16 A3000
 
KDUA - Durant, Oklahoma
Updated: Wed, Jun-Wed-2019 6:19pm
NOT Current
Overcast
Overcast
 Wind from NNW
Wind: NNW 6 mph , 9 km/h
Temperature: 91°F , 33°C
Heat Index: 100°F , 38°C
Dew Point: 73°F , 23°C
Humidity: 56%
Barometer: 29.69 inHg , 1005.4 hPa
Clouds: Overcast
Visibility: 10 miles , 16 km
Cloud details: Mostly cloudy 4400 ft
Overcast 5000 ft
2019/06/19 23:19 KDUA 192319Z AUTO 33005KT 10SM BKN044 OVC050 33/23 A2969 RMK AO2
KSTJ - St. Joseph, Missouri
Updated: Thu, Jun-Thu-2019 3:53am
Clear
Clear
 Wind from SE
Wind: SE 5 mph , 7 km/h
Temperature: 63°F , 17°C
Dew Point: 61°F , 16°C
Humidity: 94%
Barometer: 29.73 inHg , 1006.8 hPa
Clouds: Clear
Visibility: 7 miles , 11 km
2019/06/20 08:53 KSTJ 200853Z AUTO 14004KT 7SM CLR 17/16 A2973 RMK AO2 SLP061 T01720161 53001
KMCI - Kansas City/Intl, Missouri
Updated: Thu, Jun-Thu-2019 3:53am
Clear
Clear
 Wind from SSE
Wind: SSE 5 mph , 7 km/h
Temperature: 61°F , 16°C
Dew Point: 61°F , 16°C
Humidity: 100%
Barometer: 29.74 inHg , 1007.1 hPa
Clouds: Clear
Visibility: 10 miles , 16 km
2019/06/20 08:53 KMCI 200853Z 15004KT 10SM CLR 16/16 A2974 RMK AO2 SLP061 T01610156 51003
 
KMKC - Kansas City/Dntn, Missouri
Updated: Thu, Jun-Thu-2019 3:54am
Clear
Clear
 Wind from SE
Wind: SE 3 mph , 6 km/h
Temperature: 68°F , 20°C
Dew Point: 63°F , 17°C
Humidity: 83%
Barometer: 29.73 inHg , 1006.8 hPa
Clouds: Clear
Visibility: 10 miles , 16 km
2019/06/20 08:54 KMKC 200854Z 13003KT 10SM CLR 20/17 A2973 RMK AO2 SLP059 T02000167 51004
KCDJ - Chillicothe, Missouri
Updated: Thu, Jun-Thu-2019 3:52am

 Wind from calm
Wind: Calm
Temperature: 63°F , 17°C
Dew Point: 63°F , 17°C
Humidity: 100%
Barometer: 29.75 inHg , 1007.5 hPa
2019/06/20 08:52 KCDJ 200852Z AUTO 00000KT 17/17 A2975 RMK AO1 SLP067 6//// T01720167 53006 PNO $
KIRK - Kirksville, Missouri
Updated: Thu, Jun-Thu-2019 3:55am
Mist, Mostly cloudy
Mist, Mostly cloudy
 Wind from WNW
Wind: WNW 6 mph , 9 km/h
Temperature: 63°F , 17°C
Dew Point: 63°F , 17°C
Humidity: 100%
Barometer: 29.74 inHg , 1007.1 hPa
Summary: Mist
Clouds: Mostly cloudy
Visibility: 3 miles , 5 km
Cloud details: Partly cloudy 6500 ft
Mostly cloudy 8000 ft
Mostly cloudy 10000 ft
2019/06/20 08:55 KIRK 200855Z AUTO 30005KT 3SM BR SCT065 BKN080 BKN100 17/17 A2974 RMK AO2 SLP068 T01720172 53007
 
KSZL - Whiteman Afb, Missouri
Updated: Thu, Jun-Thu-2019 2:56am
Mist, Few clouds
Mist, Few clouds
 Wind from SW
Wind: SW 3 mph , 6 km/h
Temperature: 63°F , 17°C
Dew Point: 63°F , 17°C
Humidity: 100%
Barometer: 29.69 inHg , 1005.4 hPa
Summary: Mist
Clouds: Few Clouds
Visibility: 6 miles , 10 km
Cloud details: Few Clouds 10000 ft
2019/06/20 07:56 KSZL 200756Z 23003KT 6SM BR FEW100 17/17 A2969 RMK AO2A SLP051 T01660166
KDMO - Sedalia, Missouri
Updated: Thu, Jun-Thu-2019 3:53am
Mist, Clear
Mist, Clear
 Wind from W
Wind: W 5 mph , 7 km/h
Temperature: 61°F , 16°C
Dew Point: 61°F , 16°C
Humidity: 100%
Barometer: 29.73 inHg , 1006.8 hPa
Summary: Mist
Clouds: Clear
Visibility: 3 miles , 5 km
2019/06/20 08:53 KDMO 200853Z AUTO 28004KT 3SM BR CLR 16/16 A2973 RMK AO2 SLP062 T01560156 53000 $
KGLY - Clinton, Missouri
Updated: Thu, Jun-Thu-2019 3:35am
Mist, Clear
Mist, Clear
 Wind from calm
Wind: Calm
Temperature: 63°F , 17°C
Dew Point: 63°F , 17°C
Humidity: 100%
Barometer: 29.73 inHg , 1006.8 hPa
Summary: Mist
Clouds: Clear
Visibility: 4 miles , 6 km
2019/06/20 08:35 KGLY 200835Z AUTO 00000KT 4SM BR CLR 17/17 A2973 RMK AO2
 
KCOU - Columbia, Missouri
Updated: Thu, Jun-Thu-2019 3:54am
Overcast
Overcast
 Wind from WNW
Wind: WNW 5 mph , 7 km/h
Temperature: 66°F , 19°C
Dew Point: 63°F , 17°C
Humidity: 88%
Barometer: 29.71 inHg , 1006.1 hPa
Clouds: Overcast
Visibility: 10 miles , 16 km
Cloud details: Overcast 900 ft
2019/06/20 08:54 KCOU 200854Z AUTO 30004KT 10SM OVC009 19/17 A2971 RMK AO2 CIG 007V013 SLP054 T01890172 53001
KJEF - Jefferson City, Missouri
Updated: Wed, May-Wed-2019 2:53pm
NOT Current

 Wind from S
Wind: S 12 mph , 19 km/h
Barometer: 29.80 inHg , 1009.1 hPa
2019/05/22 19:53 KJEF 221953Z AUTO 18010KT A2980 RMK AO2 SLPNO PWINO $
KVIH - Vichy/Rolla, Missouri
Updated: Thu, Jun-Thu-2019 3:53am
Overcast
Overcast
 Wind from NNW
Wind: NNW 5 mph , 7 km/h
Temperature: 64°F , 18°C
Dew Point: 61°F , 16°C
Humidity: 88%
Barometer: 29.72 inHg , 1006.4 hPa
Clouds: Overcast
Visibility: 10 miles , 16 km
Cloud details: Overcast 1300 ft
2019/06/20 08:53 KVIH 200853Z AUTO 34004KT 10SM OVC013 18/16 A2972 RMK AO2 SLP055 T01830161 53005 $
 
KTBN - Fort Leonard Wood, Missouri
Updated: Thu, Jun-Thu-2019 3:56am
Overcast
Overcast
 Wind from WNW
Wind: WNW 3 mph , 6 km/h
Temperature: 64°F , 18°C
Dew Point: 63°F , 17°C
Humidity: 94%
Barometer: 29.72 inHg , 1006.4 hPa
Clouds: Overcast
Visibility: 10 miles , 16 km
Cloud details: Overcast 600 ft
2019/06/20 08:56 KTBN 200856Z AUTO 29003KT 10SM OVC006 18/17 A2972 RMK AO2 OVC V BKN SLP057 T01750170 53007 $
KJLN - Joplin, Missouri
Updated: Thu, Jun-Thu-2019 3:58am
Mist, Clear
Mist, Clear
 Wind from calm
Wind: Calm
Temperature: 63°F , 17°C
Dew Point: 63°F , 17°C
Humidity: 100%
Barometer: 29.74 inHg , 1007.1 hPa
Summary: Mist
Clouds: Clear
Visibility: 3 miles , 5 km
2019/06/20 08:58 KJLN 200858Z AUTO 00000KT 3SM BR CLR 17/17 A2974 RMK AO2 T01720172
KHFJ - Monett, Missouri
Updated: Thu, Jun-Thu-2019 3:55am
Fog, Overcast
Fog, Overcast
 Wind from calm
Wind: Calm
Temperature: 63°F , 17°C
Dew Point: 63°F , 17°C
Humidity: 100%
Barometer: 29.75 inHg , 1007.5 hPa
Summary: Fog
Clouds: Overcast
Visibility: 1/4 mile , 0.4 km
Cloud details: Overcast 200 ft
2019/06/20 08:55 KHFJ 200855Z AUTO 00000KT 1/4SM FG OVC002 17/17 A2975 RMK AO2
 
KSGF - Springfield, Missouri
Updated: Thu, Jun-Thu-2019 3:52am
Clear
Clear
 Wind from calm
Wind: Calm
Temperature: 64°F , 18°C
Dew Point: 63°F , 17°C
Humidity: 94%
Barometer: 29.73 inHg , 1006.8 hPa
Clouds: Clear
Visibility: 10 miles , 16 km
2019/06/20 08:52 KSGF 200852Z 00000KT 10SM CLR 18/17 A2973 RMK AO2 SLP057 T01830167 51002
KBBG - Branson, Missouri
Updated: Thu, Jun-Thu-2019 3:35am
Clear
Clear
 Wind from calm
Wind: Calm
Temperature: 66°F , 19°C
Dew Point: 66°F , 19°C
Humidity: 100%
Barometer: 29.76 inHg , 1007.8 hPa
Clouds: Clear
Visibility: 10 miles , 16 km
2019/06/20 08:35 KBBG 200835Z AUTO 00000KT 10SM CLR 19/19 A2976 RMK AO2
KUNO - West Plains, Missouri
Updated: Thu, Jun-Thu-2019 3:53am
Clear
Clear
 Wind from calm
Wind: Calm
Temperature: 66°F , 19°C
Dew Point: 64°F , 18°C
Humidity: 94%
Barometer: 29.75 inHg , 1007.5 hPa
Clouds: Clear
Visibility: 8 miles , 13 km
2019/06/20 08:53 KUNO 200853Z AUTO 00000KT 8SM CLR 19/18 A2975 RMK AO2 SLP059 T01890183 51010
 
KFAM - Farmington, Missouri
Updated: Thu, Jun-Thu-2019 3:56am
Overcast
Overcast
 Wind from WNW
Wind: WNW 6 mph , 9 km/h
Temperature: 66°F , 19°C
Dew Point: 64°F , 18°C
Humidity: 94%
Barometer: 29.70 inHg , 1005.8 hPa
Clouds: Overcast
Visibility: 10 miles , 16 km
Cloud details: Overcast 1300 ft
2019/06/20 08:56 KFAM 200856Z AUTO 29005KT 10SM OVC013 19/18 A2970 RMK AO2 SLP057 T01940183 53008
KCGI - Cape Girardeau, Missouri
Updated: Thu, Jun-Thu-2019 3:53am
Few Clouds
Few Clouds
 Wind from W
Wind: W 9 mph , 15 km/h
Temperature: 72°F , 22°C
Dew Point: 66°F , 19°C
Humidity: 83%
Barometer: 29.66 inHg , 1004.4 hPa
Clouds: Few Clouds
Visibility: 10 miles , 16 km
Cloud details: Few Clouds 7000 ft
2019/06/20 08:53 KCGI 200853Z AUTO 26008KT 10SM FEW070 22/19 A2966 RMK AO2 SLP041 T02170194 53011
KSTL - St. Louis, Missouri
Updated: Thu, Jun-Thu-2019 3:51am
Overcast
Overcast
 Wind from NW
Wind: NW 6 mph , 9 km/h
Temperature: 68°F , 20°C
Dew Point: 61°F , 16°C
Humidity: 78%
Barometer: 29.67 inHg , 1004.7 hPa
Clouds: Overcast
Visibility: 10 miles , 16 km
Cloud details: Mostly cloudy 1500 ft
Overcast 2700 ft
2019/06/20 08:51 KSTL 200851Z 31005KT 10SM BKN015 OVC027 20/16 A2967 RMK AO2 SLP035 60000 T02000161 53009
 
KPOF - Popular Bluff, Missouri
Updated: Thu, Jun-Thu-2019 3:53am
Overcast
Overcast
 Wind from calm
Wind: Calm
Temperature: 72°F , 22°C
Dew Point: 70°F , 21°C
Humidity: 94%
Barometer: 29.68 inHg , 1005.1 hPa
Clouds: Overcast
Visibility: 10 miles , 16 km
Cloud details: Overcast 7000 ft
2019/06/20 08:53 KPOF 200853Z AUTO 00000KT 10SM OVC070 22/21 A2968 RMK AO2 SLP045 T02170211 51012 $
KSET - St. Charles, Missouri
Updated: Thu, Jun-Thu-2019 3:54am

 
Barometer: 29.66 inHg , 1004.4 hPa
2019/06/20 08:54 KSET 200854Z AUTO A2966 RMK AO2 SLPNO 53013 PWINO $
KGLD - Goodland, Kansas
Updated: Thu, Jun-Thu-2019 3:53am
Clear
Clear
 Wind from SSW
Wind: SSW 15 mph , 24 km/h
Temperature: 63°F , 17°C
Dew Point: 57°F , 14°C
Humidity: 83%
Barometer: 29.74 inHg , 1007.1 hPa
Clouds: Clear
Visibility: 10 miles , 16 km
2019/06/20 08:53 KGLD 200853Z AUTO 20013KT 10SM CLR 17/14 A2974 RMK AO2 SLP030 T01670139 56012
 
KHLC - Hill City, Kansas
Updated: Thu, Jun-Thu-2019 3:53am
Clear
Clear
 Wind from calm
Wind: Calm
Temperature: 63°F , 17°C
Dew Point: 59°F , 15°C
Humidity: 88%
Barometer: 29.70 inHg , 1005.8 hPa
Clouds: Clear
Visibility: 10 miles , 16 km
2019/06/20 08:53 KHLC 200853Z AUTO 00000KT 10SM CLR 17/15 A2970 RMK AO2 SLP040 T01670150 56015
KHYS - Hays Muni, Kansas
Updated: Thu, Jun-Thu-2019 3:56am
Clear
Clear
 Wind from SSE
Wind: SSE 7 mph , 11 km/h
Temperature: 61°F , 16°C
Dew Point: 59°F , 15°C
Humidity: 94%
Barometer: 29.73 inHg , 1006.8 hPa
Clouds: Clear
Visibility: 9 miles , 14 km
2019/06/20 08:56 KHYS 200856Z AUTO 16006KT 9SM CLR 16/15 A2973 RMK AO2 SLP056 T01560150 55006
KRSL - Russell, Kansas
Updated: Thu, Jun-Thu-2019 3:53am
Mist, Clear
Mist, Clear
 Wind from SSE
Wind: SSE 8 mph , 13 km/h
Temperature: 63°F , 17°C
Dew Point: 61°F , 16°C
Humidity: 94%
Barometer: 29.72 inHg , 1006.4 hPa
Summary: Mist
Clouds: Clear
Visibility: 6 miles , 10 km
2019/06/20 08:53 KRSL 200853Z AUTO 16007KT 6SM BR CLR 17/16 A2972 RMK AO2 SLP050 T01670156 56006
 
KGBD - Great Bend, Kansas
Updated: Thu, Jun-Thu-2019 3:56am
Clear
Clear
 Wind from S
Wind: S 6 mph , 9 km/h
Temperature: 61°F , 16°C
Dew Point: 61°F , 16°C
Humidity: 100%
Barometer: 29.74 inHg , 1007.1 hPa
Clouds: Clear
Visibility: 9 miles , 14 km
2019/06/20 08:56 KGBD 200856Z AUTO 18005KT 9SM CLR 16/16 A2974 RMK AO2 SLP056 T01610156 58005
KDDC - Dodge City, Kansas
Updated: Thu, Jun-Thu-2019 3:52am
Clear
Clear
 Wind from S
Wind: S 8 mph , 13 km/h
Temperature: 61°F , 16°C
Dew Point: 59°F , 15°C
Humidity: 94%
Barometer: 29.76 inHg , 1007.8 hPa
Clouds: Clear
Visibility: 9 miles , 14 km
2019/06/20 08:52 KDDC 200852Z AUTO 19007KT 9SM CLR 16/15 A2976 RMK AO2 SLP049 T01610150 56007
KPTT - Pratt Indust, Kansas
Updated: Thu, Jun-Thu-2019 3:55am
Clear
Clear
 Wind from SSE
Wind: SSE 7 mph , 11 km/h
Temperature: 63°F , 17°C
Dew Point: 63°F , 17°C
Humidity: 100%
Barometer: 29.75 inHg , 1007.5 hPa
Clouds: Clear
Visibility: 10 miles , 16 km
2019/06/20 08:55 KPTT 200855Z AUTO 16006KT 10SM CLR 17/17 A2975 RMK AO2 T01730165
 
KSLN - Salina, Kansas
Updated: Thu, Jun-Thu-2019 3:53am
Clear
Clear
 Wind from SSE
Wind: SSE 6 mph , 9 km/h
Temperature: 63°F , 17°C
Dew Point: 59°F , 15°C
Humidity: 88%
Barometer: 29.73 inHg , 1006.8 hPa
Clouds: Clear
Visibility: 9 miles , 14 km
2019/06/20 08:53 KSLN 200853Z AUTO 16005KT 9SM CLR 17/15 A2973 RMK AO2 SLP057 T01670150 50001
KHUT - Hutchinson, Kansas
Updated: Thu, Jun-Thu-2019 3:52am
Clear
Clear
 Wind from ESE
Wind: ESE 6 mph , 9 km/h
Temperature: 63°F , 17°C
Dew Point: 61°F , 16°C
Humidity: 94%
Barometer: 29.74 inHg , 1007.1 hPa
Clouds: Clear
Visibility: 10 miles , 16 km
2019/06/20 08:52 KHUT 200852Z AUTO 12005KT 10SM CLR 17/16 A2974 RMK AO2 SLP051 T01670156 55001
KGCK - Garden City, Kansas
Updated: Thu, Jun-Thu-2019 3:54am
Clear
Clear
 Wind from SSE
Wind: SSE 6 mph , 9 km/h
Temperature: 61°F , 16°C
Dew Point: 59°F , 15°C
Humidity: 94%
Barometer: 29.75 inHg , 1007.5 hPa
Clouds: Clear
Visibility: 10 miles , 16 km
2019/06/20 08:54 KGCK 200854Z AUTO 16005KT 10SM CLR 16/15 A2975 RMK AO2 SLP044 T01560150 56010
 
KP28 - Medicine Lodge, Kansas
Updated: Thu, Jun-Thu-2019 3:56am

 Wind from SE
Wind: SE 3 mph , 6 km/h
Temperature: 63°F , 17°C
Dew Point: 63°F , 17°C
Humidity: 100%
Barometer: 29.75 inHg , 1007.5 hPa
2019/06/20 08:56 KP28 200856Z AUTO 13003KT 17/17 A2975 RMK AO1 SLP059 T01720167 53001
KICT - Wichita, Kansas
Updated: Thu, Jun-Thu-2019 3:53am
Few Clouds
Few Clouds
 Wind from ESE
Wind: ESE 7 mph , 11 km/h
Temperature: 66°F , 19°C
Dew Point: 63°F , 17°C
Humidity: 88%
Barometer: 29.74 inHg , 1007.1 hPa
Clouds: Few Clouds
Visibility: 10 miles , 16 km
Cloud details: Few Clouds 25000 ft
2019/06/20 08:53 KICT 200853Z 12006KT 10SM FEW250 19/17 A2974 RMK AO2 SLP058 T01940167 50003
KRSL - Russell, Kansas
Updated: Thu, Jun-Thu-2019 3:53am
Mist, Clear
Mist, Clear
 Wind from SSE
Wind: SSE 8 mph , 13 km/h
Temperature: 63°F , 17°C
Dew Point: 61°F , 16°C
Humidity: 94%
Barometer: 29.72 inHg , 1006.4 hPa
Summary: Mist
Clouds: Clear
Visibility: 6 miles , 10 km
2019/06/20 08:53 KRSL 200853Z AUTO 16007KT 6SM BR CLR 17/16 A2972 RMK AO2 SLP050 T01670156 56006
 
KMHK - Manhattan, Kansas
Updated: Thu, Jun-Thu-2019 3:52am
Clear
Clear
 Wind from calm
Wind: Calm
Temperature: 61°F , 16°C
Dew Point: 59°F , 15°C
Humidity: 94%
Barometer: 29.74 inHg , 1007.1 hPa
Clouds: Clear
Visibility: 10 miles , 16 km
2019/06/20 08:52 KMHK 200852Z AUTO 00000KT 10SM CLR 16/15 A2974 RMK AO2 SLP062 T01610150 53004
KEMP - Emporia, Kansas
Updated: Thu, Jun-Thu-2019 3:53am
Mist, Clear
Mist, Clear
 Wind from S
Wind: S 6 mph , 9 km/h
Temperature: 61°F , 16°C
Dew Point: 61°F , 16°C
Humidity: 100%
Barometer: 29.75 inHg , 1007.5 hPa
Summary: Mist
Clouds: Clear
Visibility: 6 miles , 10 km
2019/06/20 08:53 KEMP 200853Z AUTO 17005KT 6SM BR CLR 16/16 A2975 RMK AO2 SLP067 T01610161 52003
KTOP - Topeka, Kansas
Updated: Thu, Jun-Thu-2019 3:53am
Clear
Clear
 Wind from calm
Wind: Calm
Temperature: 63°F , 17°C
Dew Point: 59°F , 15°C
Humidity: 88%
Barometer: 29.74 inHg , 1007.1 hPa
Clouds: Clear
Visibility: 9 miles , 14 km
2019/06/20 08:53 KTOP 200853Z AUTO 00000KT 9SM CLR 17/15 A2974 RMK AO2 SLP063 T01670150 53004
 
KCNU - Chanute, Kansas
Updated: Thu, Jun-Thu-2019 3:52am
Fog, Overcast
Fog, Overcast
 Wind from calm
Wind: Calm
Temperature: 63°F , 17°C
Dew Point: 61°F , 16°C
Humidity: 94%
Barometer: 29.74 inHg , 1007.1 hPa
Summary: Fog
Clouds: Overcast
Visibility: 1/2 mile , 0.8 km
Cloud details: Overcast 200 ft
2019/06/20 08:52 KCNU 200852Z AUTO 00000KT 1/2SM FG VV002 17/16 A2974 RMK AO2 SLP062 T01670156 50001
KLWC - Lawrence, Kansas
Updated: Thu, Jun-Thu-2019 3:55am
Mist, Few clouds
Mist, Few clouds
 Wind from calm
Wind: Calm
Temperature: 61°F , 16°C
Dew Point: 59°F , 15°C
Humidity: 94%
Barometer: 29.74 inHg , 1007.1 hPa
Summary: Mist
Clouds: Few Clouds
Visibility: 3 miles , 5 km
Cloud details: Few Clouds 200 ft
2019/06/20 08:55 KLWC 200855Z AUTO 00000KT 3SM BR FEW002 16/15 A2974 RMK AO2 T01610150
KPPF - Parsons, Kansas
Updated: Thu, Jun-Thu-2019 3:52am
Few Clouds
Few Clouds
 Wind from calm
Wind: Calm
Temperature: 63°F , 17°C
Dew Point: 63°F , 17°C
Humidity: 100%
Barometer: 29.76 inHg , 1007.8 hPa
Clouds: Few Clouds
Visibility: 7 miles , 11 km
Cloud details: Few Clouds 100 ft
2019/06/20 08:52 KPPF 200852Z AUTO 00000KT 7SM FEW001 17/17 A2976 RMK AO2 SLP069 T01720172 53005
 
KIDP - Independence, Kansas
Updated: Thu, Jun-Thu-2019 3:55am

 Wind from S
Wind: S 3 mph , 6 km/h
Temperature: 66°F , 19°C
Dew Point: 66°F , 19°C
Humidity: 100%
Barometer: 29.75 inHg , 1007.5 hPa
2019/06/20 08:55 KIDP 200855Z AUTO 18003KT 19/19 A2975 RMK AO2 T01910188
KOJC - Olathe, Kansas
Updated: Thu, Jun-Thu-2019 3:53am
Clear
Clear
 Wind from SSW
Wind: SSW 3 mph , 6 km/h
Temperature: 63°F , 17°C
Dew Point: 63°F , 17°C
Humidity: 100%
Barometer: 29.75 inHg , 1007.5 hPa
Clouds: Clear
Visibility: 9 miles , 14 km
2019/06/20 08:53 KOJC 200853Z AUTO 20003KT 9SM CLR 17/17 A2975 RMK AO2 SLP064 T01670167 53006
KCFV - Coffeyville, Kansas
Updated: Thu, Jun-Thu-2019 3:52am
Clear
Clear
 Wind from calm
Wind: Calm
Temperature: 66°F , 19°C
Dew Point: 64°F , 18°C
Humidity: 94%
Barometer: 29.74 inHg , 1007.1 hPa
Clouds: Clear
Visibility: 10 miles , 16 km
2019/06/20 08:52 KCFV 200852Z AUTO 00000KT 10SM CLR 19/18 A2974 RMK AO2 SLP063 T01890183 51005
 
KPTS - Pittsburg, Kansas
Updated: Thu, Jun-Thu-2019 3:55am
Clear
Clear
 Wind from calm
Wind: Calm
Temperature: 64°F , 18°C
Dew Point: 64°F , 18°C
Humidity: 100%
Barometer: 29.73 inHg , 1006.8 hPa
Clouds: Clear
Visibility: 7 miles , 11 km
2019/06/20 08:55 KPTS 200855Z AUTO 00000KT 7SM CLR 18/18 A2973 RMK AO2 T01750175
KLGA - New York City, New York
Updated: Thu, Jun-Thu-2019 3:51am
Mist, Overcast
Mist, Overcast
 Wind from NE
Wind: NE 10 mph , 17 km/h
Temperature: 63°F , 17°C
Dew Point: 63°F , 17°C
Humidity: 100%
Barometer: 29.67 inHg , 1004.7 hPa
Summary: Mist
Clouds: Overcast
Visibility: 1/4 mile , 0.4 km
Cloud details: Overcast 200 ft
2019/06/20 08:51 KLGA 200851Z 04009KT 1/4SM R04/6000VP6000FT BR OVC002 17/17 A2967 RMK AO2 SFC VIS 3/4 RAE12 SLP046 P0000 60001 T01720172 58017
KCLT - Charlotte, North Carolina
Updated: Thu, Jun-Thu-2019 3:52am
Mostly cloudy
Mostly cloudy
 Wind from SW
Wind: SW 9 mph , 15 km/h
Temperature: 73°F , 23°C
Dew Point: 70°F , 21°C
Humidity: 89%
Barometer: 29.75 inHg , 1007.5 hPa
Clouds: Mostly cloudy
Visibility: 9 miles , 14 km
Cloud details: Mostly cloudy 25000 ft
2019/06/20 08:52 KCLT 200852Z 22008KT 9SM BKN250 23/21 A2975 RMK AO2 SLP065 T02330211 56009
 
KATL - Atlanta, Georgia
Updated: Thu, Jun-Thu-2019 3:52am
Mostly cloudy
Mostly cloudy
 Wind from WSW
Wind: WSW 12 mph , 19 km/h
Temperature: 75°F , 24°C
Dew Point: 72°F , 22°C
Humidity: 89%
Barometer: 29.84 inHg , 1010.5 hPa
Clouds: Mostly cloudy
Visibility: 10 miles , 16 km
Cloud details: Few Clouds 1200 ft
Partly cloudy 20000 ft
Mostly cloudy 25000 ft
2019/06/20 08:52 KATL 200852Z 24010KT 10SM FEW012 SCT200 BKN250 24/22 A2984 RMK AO2 SLP092 T02440217 55003
KORL - Orlando, Florida
Updated: Thu, Jun-Thu-2019 3:53am
Clear
Clear
 Wind from SSW
Wind: SSW 9 mph , 15 km/h
Temperature: 75°F , 24°C
Dew Point: 72°F , 22°C
Humidity: 89%
Barometer: 29.97 inHg , 1014.9 hPa
Clouds: Clear
Visibility: 10 miles , 16 km
2019/06/20 08:53 KORL 200853Z AUTO 20008KT 10SM CLR 24/22 A2997 RMK AO2 SLP152 T02390222 55002
KMSP - Minneapolis, Minnesota
Updated: Thu, Jun-Thu-2019 3:53am
Overcast
Overcast
 Wind from ENE
Wind: ENE 6 mph , 9 km/h
Temperature: 66°F , 19°C
Dew Point: 50°F , 10°C
Humidity: 56%
Barometer: 29.75 inHg , 1007.5 hPa
Clouds: Overcast
Visibility: 10 miles , 16 km
Cloud details: Overcast 17000 ft
2019/06/20 08:53 KMSP 200853Z 06005KT 10SM OVC170 19/10 A2975 RMK AO2 SLP069 T01890100 53002
 
KORD - Chicago, Illinois
Updated: Thu, Jun-Thu-2019 3:51am
Light rain, Overcast
Light rain, Overcast
 Wind from N
Wind: N 10 mph , 17 km/h
Temperature: 57°F , 14°C
Dew Point: 57°F , 14°C
Humidity: 100%
Barometer: 29.59 inHg , 1002 hPa
Summary: Light rain
Clouds: Overcast
Visibility: 10 miles , 16 km
Cloud details: Overcast 500 ft
2019/06/20 08:51 KORD 200851Z 36009KT 10SM -RA OVC005 14/14 A2959 RMK AO2 SLP018 P0002 60011 T01440139 55007
KDFW - Dallas/Ft Worth, Texas
Updated: Thu, Jun-Thu-2019 3:53am
Mostly cloudy
Mostly cloudy
 Wind from S
Wind: S 12 mph , 19 km/h
Temperature: 79°F , 26°C
Dew Point: 64°F , 18°C
Humidity: 61%
Barometer: 29.76 inHg , 1007.8 hPa
Clouds: Mostly cloudy
Visibility: 10 miles , 16 km
Cloud details: Few Clouds 7000 ft
Mostly cloudy 19000 ft
2019/06/20 08:53 KDFW 200853Z 19010KT 10SM FEW070 BKN190 26/18 A2976 RMK AO2 SLP066 T02560183 51007
KHOU - Houston, Texas
Updated: Thu, Jun-Thu-2019 3:53am
Mostly cloudy
Mostly cloudy
 Wind from SSE
Wind: SSE 12 mph , 19 km/h
Temperature: 81°F , 27°C
Heat Index: 88°F , 31°C
Dew Point: 77°F , 25°C
Humidity: 89%
Barometer: 29.80 inHg , 1009.1 hPa
Clouds: Mostly cloudy
Visibility: 8 miles , 13 km
Cloud details: Few Clouds 1500 ft
Mostly cloudy 25000 ft
2019/06/20 08:53 KHOU 200853Z 16010KT 8SM FEW015 BKN250 27/25 A2980 RMK AO2 SLP096 T02720250 58007
 
KDEN - Denver, Colorado
Updated: Thu, Jun-Thu-2019 3:53am
Partly cloudy
Partly cloudy
 Wind from NNE
Wind: NNE 12 mph , 19 km/h
Temperature: 64°F , 18°C
Dew Point: 45°F , 7°C
Humidity: 49%
Barometer: 29.87 inHg , 1011.5 hPa
Clouds: Partly cloudy
Visibility: 10 miles , 16 km
Cloud details: Few Clouds 11000 ft
Partly cloudy 22000 ft
2019/06/20 08:53 KDEN 200853Z 02010KT 10SM FEW110 SCT220 18/07 A2987 RMK AO2 SLP030 T01780067 53013
KSFO - San Francisco, California
Updated: Thu, Jun-Thu-2019 3:56am
Few Clouds
Few Clouds
 Wind from SSE
Wind: SSE 6 mph , 9 km/h
Temperature: 57°F , 14°C
Dew Point: 54°F , 12°C
Humidity: 88%
Barometer: 29.89 inHg , 1012.2 hPa
Clouds: Few Clouds
Visibility: 10 miles , 16 km
Cloud details: Few Clouds 600 ft
Few Clouds 1100 ft
2019/06/20 08:56 KSFO 200856Z 15005KT 10SM FEW006 FEW011 14/12 A2989 RMK AO2 SLP123 T01440117 58006
KLAX - Los Angeles, California
Updated: Thu, Jun-Thu-2019 3:53am
Overcast
Overcast
 Wind from WSW
Wind: WSW 6 mph , 9 km/h
Temperature: 64°F , 18°C
Dew Point: 57°F , 14°C
Humidity: 78%
Barometer: 29.96 inHg , 1014.6 hPa
Clouds: Overcast
Visibility: 10 miles , 16 km
Cloud details: Overcast 1500 ft
2019/06/20 08:53 KLAX 200853Z 25005KT 10SM OVC015 18/14 A2996 RMK AO2 SLP144 T01780139 58006